Relevés horaires Zürich / Fluntern (Suisse)


Relevés horaires à Zürich / Fluntern - Mardi 15 Oct. 2002
Heure UTC1 Température [°C] Vent [km/h] Hum. [%] Pres.4 [hPa] Visi. [Km] Nébu. [octa] Préc.5 [mm] Cond.
2m. Res. Ros. Dir.2 Vit. Moy. Raf.3
23:00 13.7 13.7 12.5 NNO 0.0 -- -- 92 1012.5 -- -- -- --
22:00 13.7 13.7 12.7 NNO 0.0 -- -- 94 1012.9 -- -- -- --
21:00 13.8 13.8 12.7 E 5.6 -- -- 93 1012.8 -- -- -- --
20:00 13.7 13.7 12.6 NNO 0.0 -- -- 93 1013.5 -- -- -- --
19:00 14.1 14.1 12.2 NO 5.6 -- -- 88 1013 -- -- -- --
18:00 14.0 14.0 12.5 N 3.7 -- -- 91 1012.7(-0.5/3h) 12 7/8 0/0h
Légère pluie intermittente
17:00 14.6 14.6 12.6 S 3.7 -- -- 88 1012.5 -- -- -- --
16:00 15.5 15.5 12.3 S 3.7 -- -- 81 1012.2 -- -- -- --
15:00 15.8 15.8 12.2 OSO 3.7 -- -- 79 1012.8(0.0/3h) 12 7/8 -- Précipitations aux alentours
14:00 15.7 15.7 11.7 O 5.6 -- -- 77 1012.7 -- -- -- --
13:00 14.5 14.5 11.8 S 1.9 -- -- 84 1012.8 -- -- -- --
12:00 14.9 14.9 12.2 SO 3.7 -- -- 84 1013.1(-0.6/3h) 7 7/8 0/0h
Brouillard
11:00 14.1 14.1 12.0 N 1.9 -- -- 87 1013.5 -- -- -- --
10:00 13.4 13.4 11.6 ENE 3.7 -- -- 89 1013.6 -- -- -- --
09:00 13.0 13.0 10.6 OSO 1.9 -- -- 85 1014.2(0.2/3h) 5 7/8 -- Brouillard
08:00 11.5 11.5 10.2 NNO 0.0 -- -- 92 1014.7 -- -- -- --
07:00 10.4 10.4 9.3 NNO 1.9 -- -- 93 1014.5 -- -- -- --
06:00 10.3 10.3 9.0 NNO 0.0 -- -- 92 1014.6(-0.7/3h) 4.5 8/8 5/12h
Brouillard
05:00 9.8 9.8 8.5 NNO 0.0 -- -- 92 1015.5 -- -- -- --
04:00 9.7 9.7 8.6 S 3.7 -- -- 93 1015.5 -- -- -- --
03:00 9.4 9.4 8.1 SE 1.9 -- -- 92 1015.6 -- -- -- --
02:00 9.2 9.2 8.0 NNO 0.0 -- -- 92 1016 -- -- -- --
01:00 9.2 8.7 7.9 ENE 5.6 -- -- 92 1016.1 -- -- -- --
00:00 9.0 9.0 7.7 ENE 3.7 -- -- 92 1016.4(0.4/3h) -- -- -- --

1 Coordinated Universal Time. Actuellement il est 12:00 locale et 10:00 UTC.

2 Le vent souffle depuis la direction indiquée vers la direction oposée.

3 Les rafales max. sont disponible 40 min après l'heure du relevé.

4 Pour les stations d'altitude (plus de 600m) le géopotentiel du niveau le plus proche de la pression obligatoire est indiqué.

5 Les stations disposant d'un diffuseur peuvent indiquer "trace". Cela signifie que des précipitations ont touchés le sol mais que la quantité est inférieure à 0.1 mm.

Copyright

Les données affichées sur cette page sont la propriété exclusive de Météo Suisse.

Récapitulatif de la journée
Température [°C] Vent [km/h] Ensoleillement4 [h] Precipitations totale5 [mm] Pression [Hpa]
Min1 Max.2 Moy.3 Max. Min Max.
8.9 15.9 0 -- 0 h 6 min 8 1012.2 1016.4

1 Température minimale relevée entre 18:00 UTC la veille et 18:00 UTC le jour donné.

2 Température maximale relevée entre 06:00 UTC le jour donné et 06:00 UTC le lendemain.

3 Vent moyen de la journée basé sur les relevés horaires.

4 Ensoleillement en heures relevé entre 06:00 UTC la veille et 06:00 UTC le jour donné.

5 Précipitations totales tombées entre 06:00 UTC la jour donné et 06:00 UTC le lendemain.

Graphiques horaires